createdAt,value
2018-03-25T00:00:18.236Z,93.26
2018-03-25T00:02:45.880Z,93.29
2018-03-25T00:05:13.508Z,93.84
2018-03-25T00:07:41.105Z,94.08
2018-03-25T00:10:09.155Z,93.93
2018-03-25T00:12:36.751Z,93.82
2018-03-25T00:15:04.378Z,93.97
2018-03-25T00:17:32.002Z,93.62
2018-03-25T00:20:00.070Z,93.67
2018-03-25T00:22:27.672Z,93.58
2018-03-25T00:24:55.272Z,91.65
2018-03-25T00:27:22.906Z,91.65
2018-03-25T00:29:50.508Z,92.58
2018-03-25T00:32:19.920Z,92.82
2018-03-25T00:34:48.144Z,93.17
2018-03-25T00:37:15.804Z,91.33
2018-03-25T00:39:43.443Z,89.41
2018-03-25T00:42:11.035Z,89.69
2018-03-25T00:44:38.672Z,89.48
2018-03-25T00:47:06.272Z,88.87
2018-03-25T00:49:33.890Z,88.78
2018-03-25T00:52:01.799Z,89.78
2018-03-25T00:54:29.491Z,91.55
2018-03-25T00:56:57.091Z,92.75
2018-03-25T00:59:24.677Z,92.65
2018-03-25T01:01:52.315Z,93.36
2018-03-25T01:04:20.004Z,93.84
2018-03-25T01:06:47.877Z,94.01
2018-03-25T01:09:16.414Z,93.98
2018-03-25T01:11:44.021Z,92.32
2018-03-25T01:14:13.026Z,92.77
2018-03-25T01:16:40.674Z,92.65
2018-03-25T01:19:08.403Z,91.59
2018-03-25T01:21:36.369Z,90.51
2018-03-25T01:24:04.101Z,90.19
2018-03-25T01:26:31.697Z,89.94
2018-03-25T01:28:59.413Z,89.92
2018-03-25T01:31:27.241Z,90.00
2018-03-25T01:33:54.876Z,90.73
2018-03-25T01:36:22.546Z,92.40
2018-03-25T01:38:50.171Z,90.72
2018-03-25T01:41:17.778Z,91.57
2018-03-25T01:43:45.440Z,92.65
2018-03-25T01:46:13.031Z,92.42
2018-03-25T01:48:40.701Z,92.81
2018-03-25T01:51:08.493Z,92.68
2018-03-25T01:53:36.213Z,92.61
2018-03-25T01:56:03.889Z,91.69
2018-03-25T01:58:31.494Z,91.41
2018-03-25T02:00:59.091Z,92.07
2018-03-25T02:03:26.725Z,92.02
2018-03-25T02:05:54.363Z,91.63
2018-03-25T02:08:21.980Z,92.04
2018-03-25T02:10:49.616Z,93.30
2018-03-25T02:13:17.251Z,93.79
2018-03-25T02:15:44.842Z,93.75
2018-03-25T02:18:12.496Z,93.30
2018-03-25T02:20:41.078Z,91.71
2018-03-25T02:23:09.058Z,93.06
2018-03-25T02:25:36.650Z,93.80
2018-03-25T02:28:04.242Z,93.99
2018-03-25T02:30:31.908Z,94.85
2018-03-25T02:32:59.531Z,94.38
2018-03-25T02:35:27.135Z,92.92
2018-03-25T02:37:55.120Z,93.20
2018-03-25T02:40:22.739Z,92.59
2018-03-25T02:42:50.346Z,92.06
2018-03-25T02:45:18.000Z,92.71
2018-03-25T02:47:46.028Z,93.40
2018-03-25T02:50:14.038Z,93.95
2018-03-25T02:52:41.714Z,93.45
2018-03-25T02:55:09.450Z,91.27
2018-03-25T02:57:37.269Z,91.29
2018-03-25T03:00:05.034Z,90.42
2018-03-25T03:02:32.756Z,89.91
2018-03-25T03:05:00.346Z,90.86
2018-03-25T03:07:27.980Z,90.51
2018-03-25T03:09:55.622Z,90.89
2018-03-25T03:12:23.214Z,90.25
2018-03-25T03:14:50.895Z,88.03
2018-03-25T03:17:18.524Z,87.74
2018-03-25T03:19:46.132Z,87.36
2018-03-25T03:22:13.822Z,88.04
2018-03-25T03:24:41.433Z,89.31
2018-03-25T03:27:09.022Z,89.17
2018-03-25T03:29:37.156Z,88.65
2018-03-25T03:32:04.832Z,88.36
2018-03-25T03:34:32.606Z,87.48
2018-03-25T03:37:00.222Z,86.31
2018-03-25T03:39:27.963Z,86.61
2018-03-25T03:41:55.715Z,86.20
2018-03-25T03:44:23.316Z,85.73
2018-03-25T03:46:51.359Z,85.51
2018-03-25T03:49:18.972Z,86.30
2018-03-25T03:51:46.567Z,87.12
2018-03-25T03:54:14.232Z,87.59
2018-03-25T03:56:41.982Z,87.36
2018-03-25T03:59:09.574Z,86.29
2018-03-25T04:01:37.205Z,85.38
2018-03-25T04:04:04.914Z,84.49
2018-03-25T04:06:32.547Z,84.60
2018-03-25T04:09:00.150Z,83.87
2018-03-25T04:11:28.149Z,83.26
2018-03-25T04:13:55.928Z,84.26
2018-03-25T04:16:23.602Z,84.01
2018-03-25T04:18:51.273Z,84.23
2018-03-25T04:21:18.945Z,84.14
2018-03-25T04:23:46.696Z,84.33
2018-03-25T04:26:14.404Z,84.57
2018-03-25T04:28:42.184Z,84.33
2018-03-25T04:31:09.854Z,83.96
2018-03-25T04:33:37.533Z,84.36
2018-03-25T04:36:05.134Z,84.37
2018-03-25T04:38:32.886Z,84.76
2018-03-25T04:41:00.665Z,85.06
2018-03-25T04:43:28.259Z,84.72
2018-03-25T04:45:56.096Z,85.17
2018-03-25T04:48:23.898Z,85.58
2018-03-25T04:50:51.571Z,85.86
2018-03-25T04:53:19.239Z,85.70
2018-03-25T04:55:46.924Z,85.67
2018-03-25T04:58:14.805Z,85.71
2018-03-25T05:00:42.472Z,86.49
2018-03-25T05:03:10.254Z,85.90
2018-03-25T05:05:38.037Z,86.57
2018-03-25T05:08:05.695Z,86.35
2018-03-25T05:10:33.477Z,85.95
2018-03-25T05:13:01.226Z,86.46
2018-03-25T05:15:28.893Z,86.95
2018-03-25T05:17:56.616Z,86.35
2018-03-25T05:20:24.290Z,86.92
2018-03-25T05:22:51.874Z,86.07
2018-03-25T05:25:19.608Z,86.15
2018-03-25T05:27:47.312Z,86.98
2018-03-25T05:30:14.986Z,87.20
2018-03-25T05:32:42.664Z,86.25
2018-03-25T05:35:10.393Z,86.59
2018-03-25T05:37:38.227Z,87.36
2018-03-25T05:40:05.827Z,87.23
2018-03-25T05:42:33.562Z,87.67
2018-03-25T05:45:01.355Z,88.62
2018-03-25T05:47:29.023Z,87.90
2018-03-25T05:49:56.810Z,86.60
2018-03-25T05:52:24.996Z,87.58
2018-03-25T05:54:52.663Z,87.89
2018-03-25T05:57:20.248Z,87.41
2018-03-25T05:59:47.919Z,87.31
2018-03-25T06:02:15.593Z,87.30
2018-03-25T06:04:43.372Z,88.65
2018-03-25T06:07:11.041Z,87.50
2018-03-25T06:09:38.779Z,86.87
2018-03-25T06:12:06.445Z,86.91
2018-03-25T06:14:34.168Z,86.67
2018-03-25T06:17:01.750Z,86.54
2018-03-25T06:19:29.431Z,86.75
2018-03-25T06:21:57.100Z,85.89
2018-03-25T06:24:24.886Z,86.48
2018-03-25T06:26:52.763Z,85.08
2018-03-25T06:29:20.422Z,84.33
2018-03-25T06:31:48.214Z,83.90
2018-03-25T06:34:16.472Z,83.31
2018-03-25T06:36:44.136Z,83.94
2018-03-25T06:39:11.751Z,83.07
2018-03-25T06:41:39.803Z,82.88
2018-03-25T06:44:07.498Z,82.50
2018-03-25T06:46:35.291Z,82.03
2018-03-25T06:49:03.171Z,81.64
2018-03-25T06:51:30.955Z,82.87
2018-03-25T06:53:58.677Z,82.02
2018-03-25T06:56:26.505Z,83.58
2018-03-25T06:58:54.178Z,80.17
2018-03-25T07:01:21.959Z,78.59
2018-03-25T07:03:49.840Z,78.50
2018-03-25T07:06:17.432Z,79.73
2018-03-25T07:08:45.190Z,78.62
2018-03-25T07:11:12.850Z,77.68
2018-03-25T07:13:40.642Z,80.43
2018-03-25T07:16:08.422Z,77.60
2018-03-25T07:18:36.199Z,77.29
2018-03-25T07:21:03.873Z,77.79
2018-03-25T07:23:31.653Z,76.82
2018-03-25T07:25:59.436Z,77.40
2018-03-25T07:28:27.159Z,74.57
2018-03-25T07:30:54.874Z,75.17
2018-03-25T07:33:22.617Z,73.95
2018-03-25T07:35:50.444Z,74.50
2018-03-25T07:38:18.116Z,75.85
2018-03-25T07:40:45.784Z,76.41
2018-03-25T07:43:13.781Z,77.58
2018-03-25T07:45:41.499Z,74.45
2018-03-25T07:48:09.229Z,73.09
2018-03-25T07:50:36.901Z,72.38
2018-03-25T07:53:04.989Z,71.75
2018-03-25T07:55:32.716Z,71.16
2018-03-25T07:58:00.430Z,71.80
2018-03-25T08:00:28.629Z,71.31
2018-03-25T08:02:56.221Z,71.83
2018-03-25T08:05:23.810Z,71.68
2018-03-25T08:07:51.444Z,69.60
2018-03-25T08:10:19.273Z,70.52
2018-03-25T08:12:48.028Z,70.57
2018-03-25T08:15:15.677Z,73.25
2018-03-25T08:17:43.482Z,71.39
2018-03-25T08:20:11.156Z,72.24
2018-03-25T08:22:38.818Z,70.19
2018-03-25T08:25:06.509Z,71.58
2018-03-25T08:27:34.562Z,74.53
2018-03-25T08:30:02.373Z,69.57
2018-03-25T08:32:30.047Z,70.62
2018-03-25T08:34:57.782Z,70.18
2018-03-25T08:37:25.388Z,72.19
2018-03-25T08:39:53.416Z,66.56
2018-03-25T08:42:21.164Z,64.41
2018-03-25T08:44:49.242Z,69.32
2018-03-25T08:47:17.016Z,63.98
2018-03-25T08:49:44.801Z,63.61
2018-03-25T08:52:12.531Z,64.79
2018-03-25T08:54:40.182Z,62.18
2018-03-25T08:57:08.148Z,61.94
2018-03-25T08:59:35.811Z,61.79
2018-03-25T09:02:03.584Z,62.94
2018-03-25T09:04:31.256Z,64.26
2018-03-25T09:06:58.937Z,66.13
2018-03-25T09:09:26.562Z,63.55
2018-03-25T09:11:54.281Z,62.66
2018-03-25T09:14:22.169Z,62.15
2018-03-25T09:16:49.949Z,61.33
2018-03-25T09:19:17.725Z,63.81
2018-03-25T09:21:45.416Z,64.77
2018-03-25T09:24:13.047Z,66.88
2018-03-25T09:26:40.753Z,67.42
2018-03-25T09:29:08.402Z,67.40
2018-03-25T09:31:36.053Z,66.38
2018-03-25T09:34:03.707Z,66.28
2018-03-25T09:36:31.316Z,65.45
2018-03-25T09:38:58.915Z,64.31
2018-03-25T09:41:26.579Z,59.55
2018-03-25T09:43:54.194Z,59.73
2018-03-25T09:46:21.808Z,55.22
2018-03-25T09:48:49.448Z,55.09
2018-03-25T09:51:17.098Z,55.53
2018-03-25T09:53:44.701Z,56.49
2018-03-25T09:56:12.351Z,53.46
2018-03-25T09:58:40.090Z,49.24
2018-03-25T10:01:13.335Z,53.39
2018-03-25T10:03:40.989Z,52.31
2018-03-25T10:06:08.625Z,48.09
2018-03-25T10:08:36.299Z,47.03
2018-03-25T10:11:03.938Z,48.02
2018-03-25T10:13:31.710Z,48.31
2018-03-25T10:15:59.376Z,50.00
2018-03-25T10:18:27.064Z,51.94
2018-03-25T10:20:54.650Z,46.54
2018-03-25T10:23:22.244Z,47.88
2018-03-25T10:25:49.980Z,46.74
2018-03-25T10:28:17.725Z,45.09
2018-03-25T10:30:45.736Z,45.48
2018-03-25T10:33:13.525Z,49.74
2018-03-25T10:35:41.197Z,47.27
2018-03-25T10:38:08.902Z,46.11
2018-03-25T10:40:36.640Z,47.33
2018-03-25T10:43:04.251Z,49.46
2018-03-25T10:45:32.003Z,47.03
2018-03-25T10:47:59.780Z,46.02
2018-03-25T10:50:27.375Z,45.28
2018-03-25T10:52:54.993Z,44.29
2018-03-25T10:55:22.695Z,45.40
2018-03-25T10:57:50.483Z,49.06
2018-03-25T11:00:18.262Z,46.40
2018-03-25T11:02:45.851Z,47.33
2018-03-25T11:05:13.511Z,47.32
2018-03-25T11:07:41.167Z,46.48
2018-03-25T11:10:09.269Z,46.11
2018-03-25T11:12:37.048Z,44.20
2018-03-25T11:15:04.719Z,45.44
2018-03-25T11:17:32.499Z,48.10
2018-03-25T11:20:00.103Z,45.28
2018-03-25T11:22:27.815Z,44.05
2018-03-25T11:24:55.684Z,47.96
2018-03-25T11:27:23.512Z,48.32
2018-03-25T11:29:51.291Z,47.46
2018-03-25T11:32:18.881Z,44.24
2018-03-25T11:34:46.636Z,45.99
2018-03-25T11:37:14.422Z,46.91
2018-03-25T11:39:42.195Z,46.11
2018-03-25T11:42:10.075Z,45.37
2018-03-25T11:44:38.261Z,45.00
2018-03-25T11:47:06.037Z,45.21
2018-03-25T11:49:33.814Z,45.88
2018-03-25T11:52:01.479Z,46.08
2018-03-25T11:54:29.071Z,45.53
2018-03-25T11:56:56.844Z,45.74
2018-03-25T11:59:24.728Z,46.64
2018-03-25T12:01:52.327Z,48.55
2018-03-25T12:04:19.983Z,48.32
2018-03-25T12:06:48.061Z,45.04
2018-03-25T12:09:15.730Z,44.59
2018-03-25T12:11:43.515Z,45.87
2018-03-25T12:14:11.177Z,44.55
2018-03-25T12:16:38.815Z,43.96
2018-03-25T12:19:06.433Z,43.57
2018-03-25T12:21:34.108Z,45.17
2018-03-25T12:24:01.704Z,45.24
2018-03-25T12:26:29.356Z,44.73
2018-03-25T12:28:57.093Z,45.04
2018-03-25T12:31:24.703Z,47.28
2018-03-25T12:33:52.384Z,46.71
2018-03-25T12:36:20.167Z,45.27
2018-03-25T12:38:47.758Z,45.47
2018-03-25T12:41:15.782Z,48.34
2018-03-25T12:43:43.383Z,45.39
2018-03-25T12:46:10.973Z,45.19
2018-03-25T12:48:38.847Z,45.08
2018-03-25T12:53:40.550Z,44.61
2018-03-25T12:56:08.333Z,44.01
2018-03-25T12:58:36.045Z,43.41
2018-03-25T13:01:03.882Z,44.89
2018-03-25T13:03:31.470Z,48.46
2018-03-25T13:05:59.119Z,46.62
2018-03-25T13:08:26.710Z,45.82
2018-03-25T13:10:54.483Z,47.59
2018-03-25T13:13:22.564Z,45.60
2018-03-25T13:15:50.325Z,45.58
2018-03-25T13:18:18.079Z,44.17
2018-03-25T13:20:45.870Z,44.95
2018-03-25T13:23:13.682Z,44.94
2018-03-25T13:25:41.868Z,45.74
2018-03-25T13:28:09.546Z,46.45
2018-03-25T13:30:37.208Z,47.12
2018-03-25T13:33:04.954Z,47.89
2018-03-25T13:35:32.776Z,48.33
2018-03-25T13:38:00.512Z,50.25
2018-03-25T13:40:28.328Z,49.79
2018-03-25T13:42:55.997Z,48.76
2018-03-25T13:45:23.738Z,48.16
2018-03-25T13:47:51.738Z,49.46
2018-03-25T13:50:19.544Z,49.36
2018-03-25T13:52:47.222Z,48.81
2018-03-25T13:55:15.103Z,49.56
2018-03-25T13:57:42.819Z,50.23
2018-03-25T14:00:10.439Z,50.83
2018-03-25T14:02:38.227Z,51.01
2018-03-25T14:05:06.106Z,50.58
2018-03-25T14:07:33.836Z,50.81
2018-03-25T14:10:01.629Z,51.26
2018-03-25T14:12:29.439Z,52.96
2018-03-25T14:14:57.220Z,56.20
2018-03-25T14:17:24.830Z,58.47
2018-03-25T14:19:52.980Z,58.60
2018-03-25T14:22:20.578Z,58.70
2018-03-25T14:24:48.304Z,58.56
2018-03-25T14:27:16.111Z,59.14
2018-03-25T14:29:43.889Z,58.41
2018-03-25T14:32:11.728Z,59.54
2018-03-25T14:34:39.440Z,58.69
2018-03-25T14:37:07.219Z,58.90
2018-03-25T14:39:34.890Z,59.71
2018-03-25T14:42:02.773Z,58.46
2018-03-25T14:44:30.450Z,59.03
2018-03-25T14:46:58.174Z,58.53
2018-03-25T14:49:26.007Z,58.73
2018-03-25T14:51:53.783Z,57.88
2018-03-25T14:54:21.449Z,58.17
2018-03-25T14:56:49.341Z,57.33
2018-03-25T14:59:17.119Z,57.00
2018-03-25T15:01:44.788Z,56.83
2018-03-25T15:04:12.520Z,56.68
2018-03-25T15:06:40.140Z,55.70
2018-03-25T15:09:08.232Z,56.06
2018-03-25T15:11:35.901Z,56.11
2018-03-25T15:14:03.736Z,55.87
2018-03-25T15:16:31.459Z,55.90
2018-03-25T15:18:59.046Z,55.11
2018-03-25T15:21:26.915Z,54.99
2018-03-25T15:23:54.502Z,55.11
2018-03-25T15:26:22.100Z,55.77
2018-03-25T15:28:49.945Z,54.97
2018-03-25T15:31:17.612Z,55.40
2018-03-25T15:33:45.296Z,55.34
2018-03-25T15:36:14.270Z,56.32
2018-03-25T15:38:42.025Z,56.19
2018-03-25T15:41:09.751Z,56.77
2018-03-25T15:43:37.419Z,57.78
2018-03-25T15:46:05.058Z,58.26
2018-03-25T15:48:32.731Z,58.16
2018-03-25T15:51:00.393Z,57.14
2018-03-25T15:53:28.024Z,56.91
2018-03-25T15:55:55.805Z,56.68
2018-03-25T15:58:23.584Z,56.57
2018-03-25T16:00:51.359Z,56.34
2018-03-25T16:03:19.141Z,55.98
2018-03-25T16:05:46.812Z,55.57
2018-03-25T16:08:14.489Z,55.66
2018-03-25T16:10:42.219Z,55.99
2018-03-25T16:13:10.353Z,56.08
2018-03-25T16:15:38.020Z,56.63
2018-03-25T16:18:05.685Z,56.14
2018-03-25T16:20:33.684Z,55.97
2018-03-25T16:23:01.294Z,56.15
2018-03-25T16:25:28.991Z,56.79
2018-03-25T16:27:56.686Z,56.72
2018-03-25T16:30:24.496Z,57.35
2018-03-25T16:32:52.217Z,57.28
2018-03-25T16:35:19.863Z,58.56
2018-03-25T16:37:48.033Z,58.87
2018-03-25T16:40:15.770Z,59.29
2018-03-25T16:42:43.363Z,59.88
2018-03-25T16:45:11.100Z,60.30
2018-03-25T16:47:38.941Z,60.25
2018-03-25T16:50:06.720Z,61.59
2018-03-25T16:52:34.391Z,62.80
2018-03-25T16:55:02.340Z,63.61
2018-03-25T16:57:29.947Z,64.06
2018-03-25T16:59:57.729Z,64.74
2018-03-25T17:02:25.913Z,65.49
2018-03-25T17:04:53.634Z,66.60
2018-03-25T17:07:21.264Z,67.45
2018-03-25T17:09:48.940Z,68.37
2018-03-25T17:12:16.714Z,71.63
2018-03-25T17:14:44.388Z,73.11
2018-03-25T17:17:12.275Z,74.05
2018-03-25T17:19:39.940Z,74.89
2018-03-25T17:22:07.621Z,75.89
2018-03-25T17:24:35.247Z,76.32
2018-03-25T17:27:03.077Z,76.93
2018-03-25T17:29:30.857Z,77.44
2018-03-25T17:31:58.633Z,77.34
2018-03-25T17:34:26.411Z,77.65
2018-03-25T17:36:54.088Z,77.25
2018-03-25T17:39:21.915Z,77.52
2018-03-25T17:41:49.640Z,77.28
2018-03-25T17:44:17.214Z,77.89
2018-03-25T17:46:44.889Z,78.22
2018-03-25T17:49:12.666Z,78.41
2018-03-25T17:51:40.398Z,79.09
2018-03-25T17:54:08.019Z,79.08
2018-03-25T17:56:35.610Z,79.49
2018-03-25T17:59:03.362Z,79.88
2018-03-25T18:01:31.148Z,79.99
2018-03-25T18:03:58.925Z,79.97
2018-03-25T18:06:27.112Z,80.41
2018-03-25T18:08:54.840Z,79.44
2018-03-25T18:11:22.568Z,79.75
2018-03-25T18:13:50.449Z,80.38
2018-03-25T18:16:18.123Z,80.13
2018-03-25T18:18:45.902Z,80.50
2018-03-25T18:21:13.577Z,80.36
2018-03-25T18:23:41.260Z,80.53
2018-03-25T18:26:09.018Z,80.56
2018-03-25T18:28:36.775Z,80.75
2018-03-25T18:31:04.540Z,80.71
2018-03-25T18:33:32.156Z,80.98
2018-03-25T18:35:59.833Z,81.23
2018-03-25T18:38:27.719Z,81.26
2018-03-25T18:40:55.492Z,81.68
2018-03-25T18:43:23.220Z,82.04
2018-03-25T18:45:50.950Z,82.41
2018-03-25T18:48:18.720Z,82.53
2018-03-25T18:50:46.398Z,82.96
2018-03-25T18:53:14.178Z,82.96
2018-03-25T18:55:42.139Z,83.04
2018-03-25T18:58:09.822Z,83.77
2018-03-25T19:00:37.615Z,83.84
2018-03-25T19:03:05.390Z,84.09
2018-03-25T19:05:33.122Z,84.28
2018-03-25T19:08:00.841Z,83.72
2018-03-25T19:10:28.604Z,84.08
2018-03-25T19:12:59.134Z,84.04
2018-03-25T19:15:27.144Z,83.78
2018-03-25T19:17:54.752Z,83.97
2018-03-25T19:20:22.425Z,83.57
2018-03-25T19:22:50.175Z,83.40
2018-03-25T19:25:17.902Z,83.45
2018-03-25T19:27:45.573Z,83.12
2018-03-25T19:30:13.306Z,83.08
2018-03-25T19:32:41.025Z,82.83
2018-03-25T19:35:08.655Z,82.35
2018-03-25T19:37:36.433Z,83.00
2018-03-25T19:40:04.314Z,82.47
2018-03-25T19:42:32.091Z,82.35
2018-03-25T19:44:59.835Z,82.41
2018-03-25T19:47:27.545Z,82.85
2018-03-25T19:49:55.180Z,83.23
2018-03-25T19:52:22.892Z,83.25
2018-03-25T20:08:10.292Z,84.18
2018-03-25T20:10:37.966Z,84.18
2018-03-25T20:13:05.635Z,84.21
2018-03-25T20:15:33.315Z,83.94
2018-03-25T20:18:01.098Z,84.61
2018-03-25T20:20:28.880Z,84.43
2018-03-25T20:22:56.537Z,84.47
2018-03-25T20:25:24.219Z,84.64
2018-03-25T20:27:52.007Z,84.98
2018-03-25T20:30:19.786Z,84.85
2018-03-25T20:32:47.769Z,85.15
2018-03-25T20:35:15.444Z,85.79
2018-03-25T20:37:43.223Z,86.10
2018-03-25T20:40:10.998Z,86.52
2018-03-25T20:42:38.662Z,86.57
2018-03-25T20:45:06.452Z,86.92
2018-03-25T20:47:34.125Z,87.29
2018-03-25T20:50:02.013Z,88.07
2018-03-25T20:52:29.675Z,88.62
2018-03-25T20:54:57.346Z,88.87
2018-03-25T20:57:24.998Z,89.23
2018-03-25T20:59:52.608Z,90.21
2018-03-25T21:02:20.230Z,90.42
2018-03-25T21:04:47.922Z,90.72
2018-03-25T21:07:15.627Z,91.01
2018-03-25T21:09:43.415Z,91.32
2018-03-25T21:12:11.087Z,91.72
2018-03-25T21:14:38.867Z,91.83
2018-03-25T21:17:06.644Z,92.14
2018-03-25T21:19:34.316Z,92.56
2018-03-25T21:22:02.099Z,93.18
2018-03-25T21:24:29.927Z,94.30
2018-03-25T21:26:57.759Z,94.36
2018-03-25T21:29:25.538Z,94.85
2018-03-25T21:31:53.217Z,95.10
2018-03-25T21:34:20.879Z,95.88
2018-03-25T21:36:48.829Z,96.03
2018-03-25T21:39:16.436Z,96.67
2018-03-25T21:41:44.075Z,96.38
2018-03-25T21:44:11.792Z,97.51
2018-03-25T21:46:39.866Z,98.13
2018-03-25T21:49:07.657Z,98.05
2018-03-25T21:51:35.264Z,98.11
2018-03-25T21:54:02.899Z,98.60
2018-03-25T21:56:30.685Z,98.58
2018-03-25T21:58:58.278Z,98.43
2018-03-25T22:01:26.033Z,98.11
2018-03-25T22:03:53.791Z,98.14
2018-03-25T22:06:21.557Z,98.55
2018-03-25T22:08:49.569Z,98.86
2018-03-25T22:11:17.154Z,98.38
2018-03-25T22:13:44.747Z,98.21
2018-03-25T22:16:12.500Z,98.57
2018-03-25T22:18:52.054Z,98.75
2018-03-25T22:21:19.732Z,98.56
2018-03-25T22:23:47.403Z,98.98
2018-03-25T22:26:15.071Z,98.92
2018-03-25T22:28:42.742Z,99.66
2018-03-25T22:31:10.430Z,99.89
2018-03-25T22:33:38.617Z,100.00
2018-03-25T22:36:06.293Z,100.00
2018-03-25T22:38:34.018Z,100.00
2018-03-25T22:41:01.750Z,100.00
2018-03-25T22:43:29.525Z,100.00
2018-03-25T22:45:57.190Z,100.00
2018-03-25T22:48:24.981Z,100.00
2018-03-25T22:50:52.761Z,100.00
2018-03-25T22:53:20.495Z,100.00
2018-03-25T22:55:48.211Z,100.00
2018-03-25T22:58:15.878Z,100.00
2018-03-25T23:00:43.768Z,100.00
2018-03-25T23:03:11.437Z,100.00
2018-03-25T23:05:39.220Z,100.00
2018-03-25T23:08:06.945Z,100.00
2018-03-25T23:10:35.082Z,100.00
2018-03-25T23:13:02.864Z,100.00
2018-03-25T23:15:30.531Z,100.00
2018-03-25T23:17:58.190Z,100.00
2018-03-25T23:20:25.990Z,100.00
2018-03-25T23:22:53.666Z,100.00
2018-03-25T23:25:21.289Z,100.00
2018-03-25T23:27:49.007Z,100.00
2018-03-25T23:30:16.598Z,100.00
2018-03-25T23:32:44.207Z,100.00
2018-03-25T23:35:12.400Z,100.00
2018-03-25T23:37:40.230Z,100.00
2018-03-25T23:40:08.008Z,100.00
2018-03-25T23:42:35.785Z,100.00
2018-03-25T23:45:03.449Z,100.00
2018-03-25T23:47:31.126Z,100.00
2018-03-25T23:49:58.816Z,100.00
2018-03-25T23:52:26.489Z,100.00
2018-03-25T23:54:54.171Z,100.00
2018-03-25T23:57:22.046Z,100.00
2018-03-25T23:59:49.722Z,100.00
